Time;durP1;ratioP1;P1;durP2;ratioP2;P2;SDS_P1;SDS_P2;PMS_P1;PMS_P2;Temp;Humidity;BMP_temperature;BMP_pressure;BME280_temperature;BME280_humidity;BME280_pressure;Samples;Min_cycle;Max_cycle;Signal;HPM_P1;HPM_P2
2021/07/02 00:02:22;;;;;;;9.63;5.10;;;;;;;19.28;100.00;94985.38;5029399;27;20271;-90
2021/07/02 00:04:49;;;;;;;7.73;4.80;;;;;;;19.18;100.00;94986.00;5029362;28;20198;-89
2021/07/02 00:07:18;;;;;;;8.97;5.67;;;;;;;19.01;100.00;94991.34;5029608;28;20198;-91
2021/07/02 00:09:45;;;;;;;6.80;4.73;;;;;;;19.04;100.00;94987.41;5029465;28;20187;-90
2021/07/02 00:12:13;;;;;;;4.93;4.47;;;;;;;19.13;100.00;94999.25;5030403;28;20222;-91
2021/07/02 00:14:40;;;;;;;5.20;4.70;;;;;;;18.88;100.00;94996.22;5032871;28;20199;-90
2021/07/02 00:17:07;;;;;;;5.33;4.27;;;;;;;18.91;100.00;94991.22;5033195;28;20198;-90
2021/07/02 00:19:35;;;;;;;5.40;4.80;;;;;;;19.00;100.00;94988.94;5032788;28;20286;-91
2021/07/02 00:22:02;;;;;;;8.70;4.77;;;;;;;19.06;100.00;94977.31;5033018;28;20623;-90
2021/07/02 00:24:31;;;;;;;5.77;4.87;;;;;;;18.64;100.00;94975.03;5032597;28;20335;-90
2021/07/02 00:26:58;;;;;;;10.83;4.97;;;;;;;18.59;100.00;94971.47;5032866;28;20199;-90
2021/07/02 00:29:26;;;;;;;7.23;4.47;;;;;;;18.65;100.00;94970.50;5032393;28;20190;-90
2021/07/02 00:31:53;;;;;;;7.20;4.57;;;;;;;18.81;100.00;94948.44;5032311;28;20232;-93
2021/07/02 00:34:21;;;;;;;4.97;4.37;;;;;;;18.94;100.00;94936.66;5032630;28;20190;-90
2021/07/02 00:36:48;;;;;;;5.83;4.60;;;;;;;19.00;100.00;94925.03;5032631;28;20203;-91
2021/07/02 00:39:16;;;;;;;9.20;4.57;;;;;;;19.03;100.00;94919.22;5032198;28;20759;-90
2021/07/02 00:41:45;;;;;;;4.57;3.77;;;;;;;19.10;100.00;94911.88;5032705;28;20609;-90
2021/07/02 00:44:12;;;;;;;5.53;4.00;;;;;;;19.08;100.00;94903.31;5032086;28;20260;-91
2021/07/02 00:46:40;;;;;;;5.67;5.03;;;;;;;19.03;100.00;94902.44;5032155;28;20199;-89
2021/07/02 00:49:07;;;;;;;5.33;4.73;;;;;;;19.05;100.00;94906.47;5032130;28;20199;-91
2021/07/02 00:51:36;;;;;;;5.10;4.70;;;;;;;19.13;100.00;94916.72;5032129;28;20226;-91
2021/07/02 00:54:04;;;;;;;7.33;5.90;;;;;;;19.14;100.00;94914.84;5032160;28;20231;-91
2021/07/02 00:56:31;;;;;;;7.20;5.47;;;;;;;19.07;100.00;94915.00;5031972;28;20238;-91
2021/07/02 00:59:00;;;;;;;6.57;5.90;;;;;;;19.03;100.00;94921.88;5032748;28;20368;-89
2021/07/02 01:01:27;;;;;;;8.33;6.60;;;;;;;18.97;100.00;94926.31;5031675;28;20234;-90
2021/07/02 01:03:54;;;;;;;9.07;5.50;;;;;;;18.88;100.00;94942.97;5032143;28;20203;-90
2021/07/02 01:06:22;;;;;;;8.17;5.80;;;;;;;18.82;100.00;94952.72;5031906;28;20747;-92
2021/07/02 01:08:49;;;;;;;7.63;4.93;;;;;;;18.75;100.00;94965.38;5031958;28;20226;-89
2021/07/02 01:11:17;;;;;;;6.00;5.17;;;;;;;18.66;100.00;94966.78;5031942;28;20714;-89
2021/07/02 01:13:44;;;;;;;7.47;5.37;;;;;;;18.55;100.00;94989.75;5031860;28;20201;-90
2021/07/02 01:16:12;;;;;;;6.13;5.20;;;;;;;18.39;100.00;95004.66;5031709;28;20695;-90
2021/07/02 01:18:40;;;;;;;6.20;5.43;;;;;;;18.59;100.00;95014.03;5031750;28;20191;-91
2021/07/02 01:21:12;;;;;;;6.90;4.47;;;;;;;18.62;100.00;95000.25;5031579;28;20286;-92
2021/07/02 01:23:39;;;;;;;7.03;4.80;;;;;;;18.64;100.00;94996.31;5031443;28;20188;-91
2021/07/02 01:26:07;;;;;;;7.10;5.47;;;;;;;18.70;100.00;94997.19;5031602;28;20199;-91
2021/07/02 01:28:34;;;;;;;6.40;4.73;;;;;;;18.68;100.00;94997.44;5031927;28;20206;-92
2021/07/02 01:31:02;;;;;;;5.83;5.33;;;;;;;18.73;100.00;94994.88;5031531;28;20281;-92
2021/07/02 01:33:29;;;;;;;7.50;4.60;;;;;;;18.78;100.00;94980.88;5031468;28;20203;-92
2021/07/02 01:36:00;;;;;;;8.33;4.57;;;;;;;18.66;100.00;94966.78;5032143;28;20199;-92
2021/07/02 01:38:29;;;;;;;5.37;4.37;;;;;;;18.73;100.00;94957.63;5032104;28;20190;-91
2021/07/02 01:40:56;;;;;;;6.27;5.47;;;;;;;18.75;100.00;94946.75;5031496;28;20573;-92
2021/07/02 01:43:24;;;;;;;5.77;4.33;;;;;;;18.71;100.00;94950.91;5031225;28;20234;-90
2021/07/02 01:45:52;;;;;;;7.60;4.73;;;;;;;18.71;100.00;94948.25;5031490;28;20199;-92
2021/07/02 01:48:19;;;;;;;5.10;4.43;;;;;;;18.72;100.00;94950.69;5031144;28;20252;-91
2021/07/02 01:50:46;;;;;;;6.50;4.13;;;;;;;18.65;100.00;94943.88;5031085;28;20231;-92
2021/07/02 01:53:14;;;;;;;4.70;4.30;;;;;;;18.58;100.00;94951.22;5030835;28;20695;-91
2021/07/02 01:55:43;;;;;;;9.10;4.40;;;;;;;18.56;100.00;94956.78;5031517;28;20235;-91
2021/07/02 01:58:10;;;;;;;7.77;4.63;;;;;;;18.55;100.00;94955.16;5031243;28;20202;-91
2021/07/02 02:00:38;;;;;;;5.50;4.47;;;;;;;18.50;100.00;94965.72;5031014;28;20191;-92
2021/07/02 02:03:05;;;;;;;4.77;4.07;;;;;;;18.44;100.00;94974.66;5031035;28;20237;-91
2021/07/02 02:05:32;;;;;;;4.20;3.80;;;;;;;18.58;100.00;94964.53;5031328;28;20277;-92
2021/07/02 02:08:00;;;;;;;6.77;4.13;;;;;;;18.71;100.00;94962.41;5031016;28;20195;-91
2021/07/02 02:10:27;;;;;;;3.83;3.53;;;;;;;18.88;100.00;94958.94;5030997;28;20294;-91
2021/07/02 02:12:56;;;;;;;7.80;5.10;;;;;;;18.50;100.00;94955.09;5031063;28;20281;-90
2021/07/02 02:15:23;;;;;;;5.00;4.50;;;;;;;18.33;100.00;94980.84;5030979;28;20199;-90
2021/07/02 02:17:51;;;;;;;5.33;4.83;;;;;;;18.25;100.00;94987.34;5031537;28;20571;-90
2021/07/02 02:20:18;;;;;;;6.00;5.13;;;;;;;18.36;100.00;95001.63;5030924;28;20203;-88
2021/07/02 02:22:46;;;;;;;5.73;3.77;;;;;;;18.46;100.00;94993.84;5030914;28;20195;-90
2021/07/02 02:25:13;;;;;;;9.03;4.10;;;;;;;18.50;100.00;94981.69;5030650;28;20206;-90
2021/07/02 02:27:40;;;;;;;7.90;4.03;;;;;;;18.52;100.00;94982.25;5031158;28;20230;-90
2021/07/02 02:30:10;;;;;;;7.00;5.13;;;;;;;18.58;100.00;94975.97;5031171;28;20202;-90
2021/07/02 02:32:40;;;;;;;6.87;6.17;;;;;;;18.54;100.00;94974.84;5030592;28;20233;-90
2021/07/02 02:35:08;;;;;;;5.77;5.20;;;;;;;18.54;100.00;94985.50;5030209;28;20286;-90
2021/07/02 02:37:35;;;;;;;7.40;4.73;;;;;;;18.47;100.00;94990.94;5030613;28;20222;-90
2021/07/02 02:40:06;;;;;;;8.33;5.40;;;;;;;18.52;100.00;94995.56;5030425;28;20199;-90
2021/07/02 02:42:33;;;;;;;6.50;5.27;;;;;;;18.46;100.00;95001.81;5030364;28;20274;-91
2021/07/02 02:45:00;;;;;;;6.93;4.60;;;;;;;18.41;100.00;95012.38;5030244;28;20199;-90
2021/07/02 02:47:29;;;;;;;7.60;4.87;;;;;;;18.54;100.00;95006.78;5029331;28;20733;-92
2021/07/02 02:49:56;;;;;;;7.70;5.17;;;;;;;18.42;100.00;95012.13;5061169;27;20210;-93
2021/07/02 02:52:24;;;;;;;5.77;4.63;;;;;;;18.52;100.00;95009.66;5030789;28;20226;-93
2021/07/02 02:54:51;;;;;;;5.27;4.53;;;;;;;18.59;100.00;95006.03;5030449;28;20625;-94
2021/07/02 02:57:18;;;;;;;8.00;4.80;;;;;;;18.55;100.00;95013.69;5030146;28;20195;-94
2021/07/02 02:59:45;;;;;;;7.23;5.30;;;;;;;18.53;100.00;95015.78;5030340;28;20190;-93
2021/07/02 03:02:13;;;;;;;3.97;3.67;;;;;;;18.44;100.00;95020.69;5030565;28;20202;-93
2021/07/02 03:04:42;;;;;;;7.60;4.10;;;;;;;18.27;100.00;95022.50;5030288;28;20206;-92
2021/07/02 03:07:09;;;;;;;5.10;4.60;;;;;;;18.23;100.00;95042.63;5030678;28;20195;-92
2021/07/02 03:09:37;;;;;;;4.87;4.33;;;;;;;18.35;100.00;95045.25;5010321;28;20222;-93
2021/07/02 03:12:05;;;;;;;5.70;4.40;;;;;;;18.41;100.00;95046.97;5009899;28;20227;-87
2021/07/02 03:14:32;;;;;;;7.47;4.37;;;;;;;18.38;100.00;95050.09;5009093;28;20231;-90
2021/07/02 03:17:00;;;;;;;5.20;4.03;;;;;;;18.25;100.00;95044.03;5025523;28;20241;-90
2021/07/02 03:19:27;;;;;;;4.90;3.70;;;;;;;18.51;100.00;95047.16;5029738;28;20191;-89
2021/07/02 03:21:56;;;;;;;6.43;4.50;;;;;;;18.43;100.00;95035.03;5030141;28;20198;-88
2021/07/02 03:24:23;;;;;;;7.43;4.60;;;;;;;18.49;100.00;95039.41;5029627;28;20199;-89
2021/07/02 03:26:50;;;;;;;6.43;4.27;;;;;;;18.54;100.00;95046.69;5029920;28;20202;-89
2021/07/02 03:29:18;;;;;;;5.30;4.80;;;;;;;18.35;100.00;95046.03;5029424;28;20199;-88
2021/07/02 03:31:45;;;;;;;7.90;4.63;;;;;;;18.38;100.00;95044.78;5029615;28;20734;-90
2021/07/02 03:34:12;;;;;;;7.37;4.53;;;;;;;18.56;100.00;95047.22;5030336;28;20604;-90
2021/07/02 03:36:40;;;;;;;5.20;4.40;;;;;;;18.47;100.00;95056.66;5029572;28;20259;-89
2021/07/02 03:39:09;;;;;;;4.67;4.27;;;;;;;18.33;100.00;95058.00;5028668;28;20274;-86
2021/07/02 03:41:36;;;;;;;10.97;4.63;;;;;;;18.37;100.00;95059.13;5028297;28;20277;-85
2021/07/02 03:44:04;;;;;;;8.00;5.20;;;;;;;18.17;100.00;95064.84;5027824;28;20194;-84
2021/07/02 03:46:31;;;;;;;7.10;4.10;;;;;;;18.23;100.00;95078.00;5027769;28;20672;-84
2021/07/02 03:48:59;;;;;;;9.37;4.47;;;;;;;18.30;100.00;95091.97;5031060;28;20198;-86
2021/07/02 03:51:34;;;;;;;10.47;4.40;;;;;;;18.32;100.00;95093.59;5031561;28;20199;-86
2021/07/02 03:54:01;;;;;;;5.33;4.60;;;;;;;18.43;100.00;95090.91;5035034;28;20221;-84
2021/07/02 03:56:30;;;;;;;11.00;4.97;;;;;;;18.43;100.00;95096.22;5031061;28;20198;-84
2021/07/02 03:58:57;;;;;;;6.73;4.83;;;;;;;18.71;100.00;95095.47;5030684;28;20191;-84
2021/07/02 04:01:24;;;;;;;4.07;3.47;;;;;;;18.77;100.00;95083.03;5031634;28;20199;-85
2021/07/02 04:03:52;;;;;;;4.57;4.17;;;;;;;18.87;100.00;95075.25;5031980;28;20240;-85
2021/07/02 04:06:19;;;;;;;5.90;4.57;;;;;;;18.90;100.00;95064.13;5031902;28;20194;-86
2021/07/02 04:08:46;;;;;;;5.90;4.30;;;;;;;19.00;100.00;95068.81;5031741;28;20194;-86
2021/07/02 04:11:14;;;;;;;11.53;4.70;;;;;;;18.89;100.00;95072.34;5031872;28;20221;-86
2021/07/02 04:13:42;;;;;;;7.03;3.93;;;;;;;18.88;100.00;95081.41;5032007;28;20267;-86
2021/07/02 04:16:10;;;;;;;5.50;3.90;;;;;;;18.92;100.00;95085.19;5031623;28;20285;-86
2021/07/02 04:18:37;;;;;;;9.47;5.00;;;;;;;18.73;100.00;95088.03;5031917;28;20272;-86
2021/07/02 04:21:04;;;;;;;4.57;4.03;;;;;;;18.76;100.00;95094.75;5031631;28;20234;-86
2021/07/02 04:23:32;;;;;;;4.90;3.90;;;;;;;18.81;100.00;95108.16;5031503;28;20194;-85
2021/07/02 04:25:59;;;;;;;6.30;4.70;;;;;;;18.79;100.00;95110.25;5031439;28;20243;-86
2021/07/02 04:28:26;;;;;;;7.33;5.80;;;;;;;18.66;100.00;95124.59;5031439;28;20223;-85
2021/07/02 04:30:55;;;;;;;9.87;5.10;;;;;;;18.65;100.00;95136.31;5031525;28;20210;-86
2021/07/02 04:33:22;;;;;;;5.63;5.03;;;;;;;18.62;100.00;95146.59;5031490;28;20283;-86
2021/07/02 04:35:49;;;;;;;9.10;5.77;;;;;;;18.88;100.00;95142.63;5031487;28;20708;-86
2021/07/02 04:38:17;;;;;;;6.87;5.37;;;;;;;19.04;100.00;95123.19;5031456;28;20230;-86
2021/07/02 04:40:44;;;;;;;5.47;4.97;;;;;;;19.02;100.00;95125.31;5031543;28;20210;-86
2021/07/02 04:43:11;;;;;;;5.50;5.00;;;;;;;19.20;100.00;95117.09;5031397;28;20252;-86
2021/07/02 04:45:39;;;;;;;8.63;5.30;;;;;;;19.15;100.00;95125.00;5031844;28;20555;-86
2021/07/02 04:48:08;;;;;;;5.67;4.83;;;;;;;19.24;100.00;95150.19;5031292;28;20240;-86
2021/07/02 04:50:35;;;;;;;8.83;4.70;;;;;;;19.33;100.00;95131.97;5031086;28;20210;-86
2021/07/02 04:53:03;;;;;;;9.20;5.00;;;;;;;19.46;100.00;95142.28;5031236;28;20314;-86
2021/07/02 04:55:30;;;;;;;10.30;4.60;;;;;;;19.58;100.00;95120.13;5017091;28;20281;-86
2021/07/02 04:57:57;;;;;;;5.53;4.80;;;;;;;19.46;100.00;95136.16;5020009;28;20667;-85
2021/07/02 05:00:27;;;;;;;7.23;4.90;;;;;;;19.51;100.00;95157.59;5030360;28;20652;-86
2021/07/02 05:02:54;;;;;;;7.07;4.60;;;;;;;19.59;100.00;95167.84;5031345;28;20222;-86
2021/07/02 05:05:23;;;;;;;7.57;5.03;;;;;;;19.65;100.00;95169.56;5030893;28;20194;-85
2021/07/02 05:07:50;;;;;;;4.77;4.37;;;;;;;19.78;100.00;95167.63;5030928;28;20279;-86
2021/07/02 05:10:17;;;;;;;8.17;4.73;;;;;;;19.94;100.00;95132.94;5030909;28;20195;-86
2021/07/02 05:12:45;;;;;;;7.20;4.93;;;;;;;20.12;100.00;95123.84;5031152;28;20313;-86
2021/07/02 05:15:13;;;;;;;4.93;4.40;;;;;;;20.26;100.00;95113.63;5030753;28;20203;-86
2021/07/02 05:17:41;;;;;;;7.20;5.63;;;;;;;20.36;100.00;95102.28;5030907;28;20706;-85
2021/07/02 05:20:09;;;;;;;9.50;5.37;;;;;;;20.39;100.00;95093.78;5030449;28;20206;-85
2021/07/02 05:22:38;;;;;;;7.37;4.77;;;;;;;20.57;100.00;95109.50;5030853;28;20195;-86
2021/07/02 05:25:07;;;;;;;6.20;4.87;;;;;;;20.66;100.00;95102.69;5030851;28;20604;-86
2021/07/02 05:27:34;;;;;;;7.67;4.43;;;;;;;20.72;100.00;95110.75;5030415;28;20337;-86
2021/07/02 05:30:01;;;;;;;5.93;4.87;;;;;;;20.90;100.00;95113.09;5030837;28;20290;-86
2021/07/02 05:32:29;;;;;;;6.30;5.63;;;;;;;20.94;100.00;95116.06;5030643;28;20230;-85
2021/07/02 05:34:56;;;;;;;5.50;4.80;;;;;;;21.04;100.00;95119.63;5030542;28;20623;-85
2021/07/02 05:37:24;;;;;;;6.73;5.17;;;;;;;21.17;100.00;95128.31;5030377;28;20199;-85
2021/07/02 05:39:54;;;;;;;7.43;5.20;;;;;;;21.34;100.00;95129.84;5030503;28;20202;-85
2021/07/02 05:42:24;;;;;;;6.20;4.70;;;;;;;21.47;100.00;95143.84;5031398;28;20190;-85
2021/07/02 05:44:52;;;;;;;8.00;5.10;;;;;;;21.56;100.00;95145.78;5030443;28;20187;-86
2021/07/02 05:47:22;;;;;;;7.70;5.17;;;;;;;21.82;100.00;95151.31;5027226;28;20629;-85
2021/07/02 05:49:49;;;;;;;8.57;4.97;;;;;;;21.87;100.00;95167.44;5010529;28;20187;-85
2021/07/02 05:52:16;;;;;;;6.13;4.63;;;;;;;22.01;100.00;95187.31;5010520;28;20200;-85
2021/07/02 05:54:48;;;;;;;6.10;5.33;;;;;;;22.16;100.00;95196.56;5010123;28;20231;-85
2021/07/02 05:57:17;;;;;;;6.57;4.80;;;;;;;22.23;100.00;95232.72;5008934;28;20192;-85
2021/07/02 05:59:44;;;;;;;4.83;4.20;;;;;;;22.16;100.00;95263.44;5009951;28;20261;-85
2021/07/02 06:02:12;;;;;;;5.73;5.13;;;;;;;22.35;100.00;95278.06;5010409;28;20668;-85
2021/07/02 06:04:39;;;;;;;5.67;4.57;;;;;;;22.57;100.00;95277.13;5010343;28;20222;-85
2021/07/02 06:07:06;;;;;;;5.43;4.33;;;;;;;22.89;100.00;95277.03;5010755;28;20619;-86
2021/07/02 06:09:36;;;;;;;6.70;4.97;;;;;;;22.95;100.00;95309.00;5010119;28;20328;-85
2021/07/02 06:12:03;;;;;;;5.60;4.37;;;;;;;22.98;100.00;95323.75;5010463;28;20583;-85
2021/07/02 06:14:33;;;;;;;4.90;4.40;;;;;;;23.10;100.00;95359.19;5009978;28;20262;-85
2021/07/02 06:17:00;;;;;;;5.10;4.30;;;;;;;23.36;100.00;95365.50;5010121;28;20204;-85
2021/07/02 06:19:27;;;;;;;6.73;4.50;;;;;;;23.55;100.00;95391.84;5010018;28;20195;-84
2021/07/02 06:21:55;;;;;;;5.77;3.93;;;;;;;23.76;100.00;95412.34;5009916;28;20200;-84
2021/07/02 06:24:26;;;;;;;6.90;3.70;;;;;;;23.73;100.00;95445.09;5009955;28;20195;-85
2021/07/02 06:26:53;;;;;;;4.17;3.67;;;;;;;23.92;100.00;95430.13;5010088;28;20235;-85
2021/07/02 06:29:20;;;;;;;9.80;4.60;;;;;;;23.85;100.00;95439.50;5009668;28;20290;-85
2021/07/02 06:31:49;;;;;;;5.17;4.73;;;;;;;23.86;100.00;95438.44;5010036;28;20290;-85
2021/07/02 06:34:16;;;;;;;4.37;4.00;;;;;;;24.05;100.00;95434.22;5013432;28;20236;-85
2021/07/02 06:36:44;;;;;;;5.73;4.13;;;;;;;23.85;100.00;95440.31;5029879;28;20231;-85
2021/07/02 06:39:11;;;;;;;9.03;4.37;;;;;;;23.98;100.00;95447.06;5029423;28;20199;-85
2021/07/02 06:41:38;;;;;;;5.53;4.60;;;;;;;24.37;100.00;95417.09;5029575;28;20199;-85
2021/07/02 06:44:06;;;;;;;3.93;3.53;;;;;;;24.60;100.00;95516.03;5029338;28;20281;-84
2021/07/02 06:46:34;;;;;;;5.10;3.97;;;;;;;24.49;100.00;95525.16;5029219;28;20591;-84
2021/07/02 06:49:05;;;;;;;4.70;4.30;;;;;;;24.29;100.00;95520.47;5029232;28;20198;-84
2021/07/02 06:51:33;;;;;;;4.37;4.07;;;;;;;24.67;100.00;95516.59;5029354;28;20213;-84
2021/07/02 06:54:01;;;;;;;3.90;3.60;;;;;;;24.85;100.00;95507.19;5029203;28;20234;-85
2021/07/02 06:56:29;;;;;;;3.73;3.43;;;;;;;24.85;100.00;95585.13;5029395;28;20203;-84
2021/07/02 06:58:58;;;;;;;7.13;4.50;;;;;;;24.88;100.00;95559.63;5029030;28;20293;-83
2021/07/02 07:01:26;;;;;;;6.67;3.97;;;;;;;25.31;100.00;95546.78;5029301;28;20683;-84
2021/07/02 07:03:53;;;;;;;6.50;3.57;;;;;;;25.38;100.00;95595.72;5028940;28;20199;-84
2021/07/02 07:06:22;;;;;;;4.13;3.83;;;;;;;25.46;100.00;95608.66;5029230;28;20272;-84
2021/07/02 07:08:50;;;;;;;5.60;3.87;;;;;;;25.12;100.00;95619.91;5029152;28;20301;-84
2021/07/02 07:11:17;;;;;;;10.20;3.80;;;;;;;25.19;100.00;95597.34;5029115;28;20258;-84
2021/07/02 07:13:44;;;;;;;5.97;3.70;;;;;;;25.16;100.00;95574.47;5028883;28;20230;-84
2021/07/02 07:16:13;;;;;;;6.70;3.90;;;;;;;24.96;100.00;95577.09;5028906;28;20251;-84
2021/07/02 07:18:40;;;;;;;7.87;3.93;;;;;;;25.46;100.00;95575.53;5028865;28;20203;-84
2021/07/02 07:21:07;;;;;;;3.97;3.57;;;;;;;25.46;100.00;95557.53;5028401;28;20286;-85
2021/07/02 07:23:36;;;;;;;5.07;3.37;;;;;;;25.39;100.00;95594.66;5028486;28;20308;-84
2021/07/02 07:26:03;;;;;;;5.17;3.40;;;;;;;25.41;100.00;95627.47;5029186;28;20199;-85
2021/07/02 07:28:31;;;;;;;6.73;3.63;;;;;;;25.83;100.00;95616.47;5029063;28;20632;-84
2021/07/02 07:30:58;;;;;;;5.43;4.10;;;;;;;26.01;100.00;95646.59;5029089;28;20203;-85
2021/07/02 07:33:29;;;;;;;6.70;3.43;;;;;;;25.73;100.00;95645.25;5028783;28;20231;-85
2021/07/02 07:35:56;;;;;;;6.73;3.50;;;;;;;26.11;100.00;95635.81;5028775;28;20198;-85
2021/07/02 07:38:24;;;;;;;3.80;3.50;;;;;;;26.04;100.00;95667.59;5028750;28;20199;-85
2021/07/02 07:40:55;;;;;;;4.82;4.10;;;;;;;26.28;100.00;95670.53;5028719;28;20270;-85
2021/07/02 07:43:24;;;;;;;6.37;4.40;;;;;;;26.17;100.00;95699.38;5028620;28;20250;-86
2021/07/02 07:45:51;;;;;;;4.93;4.10;;;;;;;26.19;100.00;95669.47;5028504;28;20252;-84
2021/07/02 07:48:18;;;;;;;5.87;4.40;;;;;;;26.61;100.00;95658.34;5028685;28;20237;-85
2021/07/02 07:50:49;;;;;;;11.07;4.07;;;;;;;26.60;100.00;95670.19;5028817;28;20747;-85
2021/07/02 07:53:16;;;;;;;3.53;3.22;;;;;;;26.69;100.00;95727.84;5028149;28;20187;-85
2021/07/02 07:55:44;;;;;;;5.10;3.20;;;;;;;26.90;100.00;95695.44;5028788;28;20341;-85
2021/07/02 07:58:13;;;;;;;6.35;4.80;;;;;;;27.15;100.00;95738.50;5028606;28;20198;-85
2021/07/02 08:00:40;;;;;;;3.95;3.50;;;;;;;27.21;100.00;95734.72;5028295;28;20706;-85
2021/07/02 08:03:08;;;;;;;4.00;3.60;;;;;;;27.27;100.00;95759.78;5028249;28;20675;-85
2021/07/02 08:05:35;;;;;;;4.45;3.90;;;;;;;27.22;100.00;95782.16;5028218;28;20286;-85
2021/07/02 08:08:04;;;;;;;7.55;3.45;;;;;;;27.09;100.00;95763.88;5028521;28;20663;-85
2021/07/02 08:10:31;;;;;;;3.53;3.17;;;;;;;27.00;100.00;95725.88;5028271;28;20198;-85
2021/07/02 08:12:59;;;;;;;5.70;3.92;;;;;;;26.97;100.00;95747.19;5028546;28;20207;-85
2021/07/02 08:15:27;;;;;;;9.63;3.20;;;;;;;27.19;100.00;95728.78;5028003;28;20786;-86
2021/07/02 08:17:55;;;;;;;5.22;3.60;;;;;;;27.20;100.00;95746.59;5028329;28;20199;-85
2021/07/02 08:20:22;;;;;;;10.98;4.30;;;;;;;27.02;100.00;95747.19;5028335;28;20317;-85
2021/07/02 08:22:49;;;;;;;4.75;3.22;;;;;;;26.98;100.00;95751.47;5028279;28;20736;-85
2021/07/02 08:25:17;;;;;;;4.35;3.63;;;;;;;26.89;100.00;95753.97;5027964;28;20668;-86
2021/07/02 08:30:45;;;;;;;6.97;3.80;;;;;;;27.33;100.00;95728.16;4967341;28;20193;-86
2021/07/02 08:33:18;;;;;;;7.43;4.25;;;;;;;27.14;100.00;95777.34;4968375;28;20201;-86
2021/07/02 08:35:46;;;;;;;6.10;3.85;;;;;;;27.26;100.00;95758.16;4999822;28;20203;-86
2021/07/02 08:38:13;;;;;;;4.05;3.53;;;;;;;27.49;100.00;95735.91;5031470;28;20198;-86
2021/07/02 08:40:40;;;;;;;6.78;4.18;;;;;;;26.99;100.00;95770.09;5031231;28;20202;-86
2021/07/02 08:43:08;;;;;;;5.80;4.75;;;;;;;26.72;100.00;95743.50;5031776;28;20597;-86
2021/07/02 08:45:36;;;;;;;4.82;4.00;;;;;;;27.19;100.00;95709.91;5031315;28;20255;-86
2021/07/02 08:48:06;;;;;;;4.53;4.10;;;;;;;27.21;100.00;95733.91;5031360;28;20205;-86
2021/07/02 08:50:35;;;;;;;5.05;4.55;;;;;;;27.23;100.00;95739.84;5031368;28;20179;-86
2021/07/02 08:53:05;;;;;;;4.68;4.30;;;;;;;27.42;100.00;95735.41;5031538;28;20603;-86
2021/07/02 08:55:33;;;;;;;4.90;4.38;;;;;;;27.35;100.00;95755.69;5030790;28;20330;-86
2021/07/02 08:58:01;;;;;;;6.22;4.40;;;;;;;27.42;100.00;95746.19;5031187;28;20195;-87
2021/07/02 09:00:28;;;;;;;7.63;4.75;;;;;;;27.40;100.00;95769.97;5030791;28;20242;-86
2021/07/02 09:02:56;;;;;;;7.38;4.45;;;;;;;27.67;100.00;95756.03;5031207;28;20238;-86
2021/07/02 09:05:32;;;;;;;7.07;5.18;;;;;;;27.80;100.00;95746.53;5031410;28;20195;-86
2021/07/02 09:08:00;;;;;;;5.13;4.63;;;;;;;28.03;100.00;95733.44;5031381;28;20187;-86
2021/07/02 09:10:35;;;;;;;6.25;4.55;;;;;;;27.74;100.00;95785.44;5030659;28;20209;-86
2021/07/02 09:13:05;;;;;;;7.40;4.55;;;;;;;27.77;100.00;95773.31;5031025;28;20209;-86
2021/07/02 09:15:33;;;;;;;5.63;4.82;;;;;;;27.85;100.00;95760.03;5030639;28;20269;-86
2021/07/02 09:18:01;;;;;;;4.85;4.38;;;;;;;28.04;100.00;95760.16;5030646;28;20230;-86
2021/07/02 09:20:35;;;;;;;5.25;4.38;;;;;;;28.20;100.00;95767.06;5030967;28;20205;-86
2021/07/02 09:23:03;;;;;;;5.63;4.43;;;;;;;28.00;100.00;95782.59;5031149;28;20198;-86
2021/07/02 09:25:32;;;;;;;5.05;4.28;;;;;;;28.20;100.00;95761.66;5030606;28;20740;-86
2021/07/02 09:28:01;;;;;;;4.78;4.38;;;;;;;27.77;100.00;95786.81;5030557;28;20195;-85
2021/07/02 09:30:30;;;;;;;8.98;5.45;;;;;;;27.95;100.00;95749.16;5030436;28;20210;-86
2021/07/02 09:33:00;;;;;;;6.93;4.72;;;;;;;28.28;100.00;95754.03;5030931;28;20206;-86
2021/07/02 09:35:38;;;;;;;5.50;4.53;;;;;;;28.25;100.00;95776.19;5030549;28;20257;-87
2021/07/02 09:38:07;;;;;;;5.30;4.80;;;;;;;28.25;100.00;95762.69;5030598;28;20187;-86
2021/07/02 09:40:35;;;;;;;6.13;4.03;;;;;;;28.43;100.00;95781.72;5030347;28;20263;-86
2021/07/02 09:43:07;;;;;;;4.70;3.72;;;;;;;28.53;100.00;95780.84;5031123;28;20187;-86
2021/07/02 09:45:36;;;;;;;4.65;4.25;;;;;;;28.17;100.00;95788.44;5029524;28;20179;-85
2021/07/02 09:48:09;;;;;;;4.10;3.70;;;;;;;28.33;100.00;95770.19;5030337;28;20666;-86
2021/07/02 09:50:42;;;;;;;4.38;3.60;;;;;;;28.50;100.00;95754.38;5030345;28;20640;-86
2021/07/02 09:53:10;;;;;;;4.75;3.97;;;;;;;28.82;100.00;95764.63;5030368;28;20227;-86
2021/07/02 09:55:44;;;;;;;6.95;3.65;;;;;;;28.66;100.00;95790.19;5030081;28;20236;-86
2021/07/02 09:58:14;;;;;;;3.80;3.25;;;;;;;28.62;100.00;95781.84;5030412;28;20269;-86
2021/07/02 10:00:43;;;;;;;4.20;3.80;;;;;;;28.66;100.00;95784.78;5030463;28;20650;-86
2021/07/02 10:03:11;;;;;;;4.75;4.30;;;;;;;28.74;100.00;95784.16;5030292;28;20233;-86
2021/07/02 10:05:48;;;;;;;6.05;2.95;;;;;;;28.66;100.00;95784.78;5029979;28;20290;-86
2021/07/02 10:08:16;;;;;;;4.03;3.35;;;;;;;28.84;100.00;95775.94;5029944;28;20639;-86
2021/07/02 10:10:44;;;;;;;3.25;2.95;;;;;;;28.90;100.00;95790.22;5030122;28;20199;-86
2021/07/02 10:13:12;;;;;;;4.90;3.03;;;;;;;28.64;100.00;95822.09;5030327;28;20206;-86
2021/07/02 10:15:41;;;;;;;3.65;3.00;;;;;;;28.98;100.00;95818.53;5029608;28;20314;-85
2021/07/02 10:18:13;;;;;;;3.30;3.00;;;;;;;28.96;100.00;95818.84;5029912;28;20207;-85
2021/07/02 10:20:42;;;;;;;6.32;2.92;;;;;;;28.63;100.00;95798.88;5030022;28;20568;-86
2021/07/02 10:23:13;;;;;;;6.15;3.08;;;;;;;28.46;100.00;95812.00;5030181;28;20585;-86
2021/07/02 10:25:43;;;;;;;3.75;2.58;;;;;;;28.16;100.00;95805.69;5029564;28;20658;-86
2021/07/02 10:28:12;;;;;;;5.38;3.75;;;;;;;27.73;100.00;95805.41;5029819;28;20198;-86
2021/07/02 10:30:41;;;;;;;2.90;2.63;;;;;;;27.54;100.00;95793.63;5029591;28;20198;-86
2021/07/02 10:33:09;;;;;;;3.75;3.40;;;;;;;27.27;100.00;95787.56;5030047;28;20202;-86
2021/07/02 10:35:43;;;;;;;3.55;3.08;;;;;;;27.23;100.00;95791.09;5029291;28;20310;-86
2021/07/02 10:38:13;;;;;;;3.17;2.97;;;;;;;27.30;100.00;95785.41;5029939;28;20200;-86
2021/07/02 10:40:43;;;;;;;4.35;2.80;;;;;;;27.10;100.00;95795.16;5029373;28;20202;-85
2021/07/02 10:43:13;;;;;;;37.53;34.03;;;;;;;26.97;100.00;95795.72;5029569;28;20198;-85
2021/07/02 10:46:14;;;;;;;3.00;2.45;;;;;;;27.07;100.00;95811.06;5030000;28;20252;-85
2021/07/02 10:48:56;;;;;;;2.60;2.40;;;;;;;27.07;100.00;95811.88;5029380;28;20202;-85
2021/07/02 10:51:47;;;;;;;4.13;2.17;;;;;;;26.63;100.00;95820.59;5029628;28;20232;-85
2021/07/02 10:54:38;;;;;;;3.55;2.10;;;;;;;26.53;100.00;95815.19;5028841;28;20237;-85
2021/07/02 10:57:08;;;;;;;3.78;2.28;;;;;;;26.94;100.00;95809.75;5029388;28;20190;-86
2021/07/02 11:00:14;;;;;;;2.60;2.03;;;;;;;27.30;100.00;95813.19;5029493;28;20234;-86
2021/07/02 11:02:43;;;;;;;2.47;2.25;;;;;;;27.67;100.00;95825.44;5029161;28;20289;-86
2021/07/02 11:05:32;;;;;;;2.47;2.28;;;;;;;27.82;100.00;95821.88;5029262;28;20203;-85
2021/07/02 11:08:00;;;;;;;1.92;1.83;;;;;;;27.73;100.00;95832.41;5029356;28;20643;-85
2021/07/02 11:10:59;;;;;;;4.57;2.30;;;;;;;27.40;100.00;95813.16;5028936;28;20686;-85
2021/07/02 11:13:26;;;;;;;5.18;2.35;;;;;;;27.77;100.00;95794.91;5029203;28;20191;-86
2021/07/02 11:16:10;;;;;;;2.70;2.50;;;;;;;27.94;100.00;95804.22;5028881;28;20233;-86
2021/07/02 11:18:44;;;;;;;2.13;1.95;;;;;;;28.04;100.00;95814.19;5029151;28;20278;-86
2021/07/02 11:21:16;;;;;;;3.88;2.17;;;;;;;27.93;100.00;95818.03;5029306;28;20658;-85
2021/07/02 11:23:44;;;;;;;2.63;2.42;;;;;;;27.84;100.00;95798.09;5028916;28;20281;-86
2021/07/02 11:26:32;;;;;;;2.30;2.10;;;;;;;27.98;100.00;95812.59;5028943;28;20224;-85
2021/07/02 11:29:00;;;;;;;2.58;2.20;;;;;;;28.11;100.00;95816.56;5028825;28;20700;-85
2021/07/02 11:31:37;;;;;;;2.25;2.15;;;;;;;28.29;100.00;95810.47;5028862;28;20619;-85
2021/07/02 11:34:17;;;;;;;2.50;2.30;;;;;;;28.36;100.00;95815.56;5029248;28;20181;-86
2021/07/02 11:37:09;;;;;;;3.22;2.28;;;;;;;28.40;100.00;95827.44;5028928;28;20193;-86